Time;durP1;ratioP1;P1;durP2;ratioP2;P2;SDS_P1;SDS_P2;PMS_P1;PMS_P2;Temp;Humidity;BMP_temperature;BMP_pressure;BME280_temperature;BME280_humidity;BME280_pressure;Samples;Min_cycle;Max_cycle;Signal;HPM_P1;HPM_P2
2023/08/09 00:01:56;;;;;;;;;;;;;;;20.53;94.42;97792.00;5083527;28;19928;-77
2023/08/09 00:04:23;;;;;;;;;;;;;;;20.58;93.82;97789.09;5083247;28;20030;-77
2023/08/09 00:06:50;;;;;;;;;;;;;;;20.56;93.98;97796.75;5080794;28;19930;-77
2023/08/09 00:09:16;;;;;;;;;;;;;;;20.53;94.20;97789.28;5084128;28;20014;-77
2023/08/09 00:11:42;;;;;;;;;;;;;;;20.53;94.48;97786.56;5059958;28;20035;-77
2023/08/09 00:14:10;;;;;;;;;;;;;;;20.48;95.13;97782.16;5084026;28;20030;-77
2023/08/09 00:16:36;;;;;;;;;;;;;;;20.54;94.85;97785.44;5059274;28;19960;-77
2023/08/09 00:19:03;;;;;;;;;;;;;;;20.55;94.83;97781.63;5083744;28;20403;-77
2023/08/09 00:21:29;;;;;;;;;;;;;;;20.54;94.88;97791.69;5081735;28;20034;-77
2023/08/09 00:23:56;;;;;;;;;;;;;;;20.54;95.02;97793.59;5081809;28;19956;-77
2023/08/09 00:26:22;;;;;;;;;;;;;;;20.49;95.74;97783.72;5082564;28;19940;-77
2023/08/09 00:28:49;;;;;;;;;;;;;;;20.53;95.87;97783.84;5081227;28;20498;-78
2023/08/09 00:31:17;;;;;;;;;;;;;;;20.48;96.43;97782.16;5084056;28;20047;-78
2023/08/09 00:33:44;;;;;;;;;;;;;;;20.52;96.53;97787.72;5077405;28;19931;-78
2023/08/09 00:36:10;;;;;;;;;;;;;;;20.52;96.70;97787.72;5084066;28;19935;-78
2023/08/09 00:38:37;;;;;;;;;;;;;;;20.45;99.70;97789.03;5075423;28;19928;-79
2023/08/09 00:41:03;;;;;;;;;;;;;;;20.28;100.00;97791.84;5070637;28;19932;-78
2023/08/09 00:43:29;;;;;;;;;;;;;;;20.11;100.00;97791.13;5081564;28;19928;-78
2023/08/09 00:45:56;;;;;;;;;;;;;;;20.16;100.00;97785.50;5081875;28;20598;-77
2023/08/09 00:48:24;;;;;;;;;;;;;;;20.16;100.00;97794.44;5082692;28;19932;-77
2023/08/09 00:50:50;;;;;;;;;;;;;;;20.22;100.00;97784.97;5060053;28;19925;-77
2023/08/09 00:53:17;;;;;;;;;;;;;;;20.04;100.00;97797.03;5065366;28;19924;-77
2023/08/09 00:55:43;;;;;;;;;;;;;;;20.04;100.00;97788.91;5075264;28;20017;-77
2023/08/09 00:58:09;;;;;;;;;;;;;;;20.14;100.00;97807.53;5083287;28;19934;-77
2023/08/09 01:00:36;;;;;;;;;;;;;;;20.20;100.00;97791.88;5066471;28;19975;-77
2023/08/09 01:03:02;;;;;;;;;;;;;;;20.11;100.00;97791.13;5067295;28;20023;-77
2023/08/09 01:05:33;;;;;;;;;;;;;;;20.14;100.00;97807.53;5085666;28;19934;-78
2023/08/09 01:08:05;;;;;;;;;;;;;;;20.09;100.00;97801.47;5083000;28;19989;-77
2023/08/09 01:10:34;;;;;;;;;;;;;;;19.58;100.00;97787.03;5085017;28;20405;-77
2023/08/09 01:13:04;;;;;;;;;;;;;;;19.21;100.00;97791.25;5081433;28;19924;-77
2023/08/09 01:15:32;;;;;;;;;;;;;;;19.34;100.00;97798.38;5084208;28;19970;-78
2023/08/09 01:17:58;;;;;;;;;;;;;;;19.60;100.00;97794.84;5083051;28;19935;-78
2023/08/09 01:20:25;;;;;;;;;;;;;;;19.57;100.00;97787.34;5085462;28;19928;-78
2023/08/09 01:22:57;;;;;;;;;;;;;;;19.72;100.00;97786.81;5082421;28;20296;-77
2023/08/09 01:25:25;;;;;;;;;;;;;;;19.90;100.00;97791.03;5068754;28;19924;-77
2023/08/09 01:27:52;;;;;;;;;;;;;;;20.01;100.00;97796.91;5065411;28;19962;-77
2023/08/09 01:30:18;;;;;;;;;;;;;;;20.10;100.00;97787.59;5068939;28;20335;-77
2023/08/09 01:32:44;;;;;;;;;;;;;;;20.10;100.00;97793.03;5082515;28;20067;-78
2023/08/09 01:35:11;;;;;;;;;;;;;;;20.19;100.00;97791.06;5084972;28;20022;-78
2023/08/09 01:37:41;;;;;;;;;;;;;;;20.14;100.00;97793.97;5085303;28;19928;-77
2023/08/09 01:40:09;;;;;;;;;;;;;;;20.19;100.00;97798.41;5087154;28;19935;-77
2023/08/09 01:42:38;;;;;;;;;;;;;;;20.25;100.00;97797.88;5068139;28;19928;-77
2023/08/09 01:45:06;;;;;;;;;;;;;;;20.27;100.00;97789.47;5085449;28;20659;-77
2023/08/09 01:47:32;;;;;;;;;;;;;;;20.29;100.00;97788.00;5083446;28;19971;-76
2023/08/09 01:49:59;;;;;;;;;;;;;;;20.28;100.00;97789.13;5080634;28;20440;-77
2023/08/09 01:52:25;;;;;;;;;;;;;;;20.14;100.00;97793.19;5083470;28;20724;-77
2023/08/09 01:54:51;;;;;;;;;;;;;;;20.22;100.00;97800.44;5085706;28;19924;-77
2023/08/09 01:57:18;;;;;;;;;;;;;;;20.31;100.00;97799.31;5082237;28;19928;-77
2023/08/09 01:59:45;;;;;;;;;;;;;;;20.08;100.00;97798.00;5084780;28;19928;-78
2023/08/09 02:02:12;;;;;;;;;;;;;;;19.98;100.00;97798.34;5081268;28;20638;-77
2023/08/09 02:04:38;;;;;;;;;;;;;;;20.00;100.00;97792.59;5083536;28;19981;-77
2023/08/09 02:07:05;;;;;;;;;;;;;;;20.02;100.00;97793.88;5086346;28;19928;-78
2023/08/09 02:09:31;;;;;;;;;;;;;;;20.07;100.00;97792.88;5063477;28;19959;-77
2023/08/09 02:11:57;;;;;;;;;;;;;;;20.16;100.00;97786.28;5083803;28;19971;-78
2023/08/09 02:14:24;;;;;;;;;;;;;;;20.00;100.00;97790.69;5080849;28;19932;-77
2023/08/09 02:16:52;;;;;;;;;;;;;;;20.02;100.00;97785.75;5086164;28;20019;-77
2023/08/09 02:19:19;;;;;;;;;;;;;;;20.06;100.00;97778.53;5062157;28;19930;-78
2023/08/09 02:21:46;;;;;;;;;;;;;;;20.14;100.00;97774.19;5082876;28;19932;-77
2023/08/09 02:24:12;;;;;;;;;;;;;;;20.20;100.00;97781.00;5084950;28;19978;-77
2023/08/09 02:26:39;;;;;;;;;;;;;;;19.96;100.00;97784.31;5082008;28;19928;-77
2023/08/09 02:29:06;;;;;;;;;;;;;;;19.94;100.00;97778.44;5066194;28;19933;-78
2023/08/09 02:31:32;;;;;;;;;;;;;;;19.98;100.00;97768.53;5080904;28;19924;-78
2023/08/09 02:34:00;;;;;;;;;;;;;;;19.63;100.00;97765.19;5083479;28;20019;-78
2023/08/09 02:36:26;;;;;;;;;;;;;;;19.53;100.00;97764.75;5085683;28;19943;-76
2023/08/09 02:38:52;;;;;;;;;;;;;;;19.57;100.00;97762.97;5082495;28;19932;-77
2023/08/09 02:41:19;;;;;;;;;;;;;;;19.65;100.00;97754.03;5066819;28;19964;-78
2023/08/09 02:43:46;;;;;;;;;;;;;;;19.39;100.00;97754.91;5063494;28;20465;-78
2023/08/09 02:46:13;;;;;;;;;;;;;;;19.00;100.00;97755.13;5065600;28;19924;-78
2023/08/09 02:48:39;;;;;;;;;;;;;;;18.97;100.00;97753.06;5067198;28;19928;-78
2023/08/09 02:51:07;;;;;;;;;;;;;;;18.58;100.00;97747.84;5082257;28;20419;-78
2023/08/09 02:53:37;;;;;;;;;;;;;;;18.56;100.00;97750.09;5084986;28;19935;-77
2023/08/09 02:56:04;;;;;;;;;;;;;;;18.60;100.00;97748.34;5081479;28;19928;-77
2023/08/09 02:58:30;;;;;;;;;;;;;;;18.32;100.00;97750.50;5083797;28;20079;-77
2023/08/09 03:00:56;;;;;;;;;;;;;;;17.78;100.00;97758.03;5080585;28;19928;-78
2023/08/09 03:03:23;;;;;;;;;;;;;;;17.82;100.00;97750.09;5082797;28;20649;-77
2023/08/09 03:05:49;;;;;;;;;;;;;;;18.24;100.00;97752.09;5067543;28;19999;-78
2023/08/09 03:08:17;;;;;;;;;;;;;;;18.68;100.00;97747.53;5081745;28;20306;-78
2023/08/09 03:10:43;;;;;;;;;;;;;;;18.94;100.00;97751.00;5084823;28;19924;-78
2023/08/09 03:13:10;;;;;;;;;;;;;;;19.22;100.00;97754.94;5081292;28;19982;-77
2023/08/09 03:15:36;;;;;;;;;;;;;;;19.36;100.00;97762.88;5083031;28;19934;-79
2023/08/09 03:18:02;;;;;;;;;;;;;;;19.44;100.00;97753.13;5080290;28;19928;-77
2023/08/09 03:20:29;;;;;;;;;;;;;;;19.38;100.00;97756.00;5081912;28;20418;-78
2023/08/09 03:22:58;;;;;;;;;;;;;;;19.19;100.00;97752.88;5066997;28;19935;-79
2023/08/09 03:25:26;;;;;;;;;;;;;;;18.82;100.00;97754.34;5080147;28;19939;-78
2023/08/09 03:27:52;;;;;;;;;;;;;;;18.81;100.00;97754.69;5085325;28;19924;-78
2023/08/09 03:30:18;;;;;;;;;;;;;;;18.87;100.00;97745.28;5084545;28;19970;-76
2023/08/09 03:32:45;;;;;;;;;;;;;;;18.71;100.00;97763.13;5083974;28;20321;-79
2023/08/09 03:35:11;;;;;;;;;;;;;;;18.81;100.00;97760.91;5079862;28;19928;-78
2023/08/09 03:37:37;;;;;;;;;;;;;;;18.92;100.00;97774.88;5081697;28;19932;-78
2023/08/09 03:40:06;;;;;;;;;;;;;;;18.98;100.00;97768.19;5085045;28;19932;-77
2023/08/09 03:42:34;;;;;;;;;;;;;;;19.19;100.00;97769.09;5079838;28;19935;-78
2023/08/09 03:45:00;;;;;;;;;;;;;;;19.35;100.00;97762.06;5084011;28;19928;-79
2023/08/09 03:47:27;;;;;;;;;;;;;;;19.40;100.00;97761.13;5074692;28;19986;-77
2023/08/09 03:49:53;;;;;;;;;;;;;;;19.33;100.00;97764.31;5081111;28;19931;-78
2023/08/09 03:52:20;;;;;;;;;;;;;;;19.00;100.00;97762.47;5083920;28;20387;-77
2023/08/09 03:54:47;;;;;;;;;;;;;;;19.07;100.00;97766.28;5080745;28;19924;-78
2023/08/09 03:57:13;;;;;;;;;;;;;;;18.83;100.00;97763.28;5079124;28;19932;-78
2023/08/09 03:59:41;;;;;;;;;;;;;;;18.81;100.00;97769.03;5081146;28;19924;-78
2023/08/09 04:02:07;;;;;;;;;;;;;;;18.93;100.00;97772.97;5080413;28;20422;-79
2023/08/09 04:04:34;;;;;;;;;;;;;;;19.05;100.00;97771.22;5084317;28;19932;-79
2023/08/09 04:07:01;;;;;;;;;;;;;;;19.11;100.00;97775.34;5081077;28;19924;-78
2023/08/09 04:09:27;;;;;;;;;;;;;;;19.18;100.00;97770.25;5083292;28;19934;-79
2023/08/09 04:11:53;;;;;;;;;;;;;;;19.13;100.00;97778.50;5080058;28;20023;-79
2023/08/09 04:14:20;;;;;;;;;;;;;;;18.96;100.00;97778.56;5065957;28;20615;-78
2023/08/09 04:16:48;;;;;;;;;;;;;;;19.06;100.00;97783.66;5061734;28;19956;-79
2023/08/09 04:19:14;;;;;;;;;;;;;;;19.02;100.00;97782.69;5080599;28;19930;-78
2023/08/09 04:21:40;;;;;;;;;;;;;;;19.11;100.00;97780.75;5066177;28;20445;-78
2023/08/09 04:24:09;;;;;;;;;;;;;;;19.03;100.00;97791.59;5080483;28;20015;-76
2023/08/09 04:26:36;;;;;;;;;;;;;;;19.07;100.00;97804.16;5066289;28;19939;-77
2023/08/09 04:29:02;;;;;;;;;;;;;;;18.75;100.00;97796.56;5065981;28;19930;-78
2023/08/09 04:31:29;;;;;;;;;;;;;;;18.58;100.00;97781.09;5082308;28;19931;-78
2023/08/09 04:33:56;;;;;;;;;;;;;;;18.64;100.00;97785.25;5067600;28;20006;-78
2023/08/09 04:36:23;;;;;;;;;;;;;;;18.64;100.00;97779.03;5085335;28;19928;-77
2023/08/09 04:38:49;;;;;;;;;;;;;;;18.78;100.00;97793.22;5069786;28;19935;-78
2023/08/09 04:41:15;;;;;;;;;;;;;;;18.90;100.00;97793.38;5084703;28;20030;-78
2023/08/09 04:43:43;;;;;;;;;;;;;;;19.09;100.00;97791.13;5087253;28;20014;-78
2023/08/09 04:46:10;;;;;;;;;;;;;;;19.17;100.00;97798.41;5069983;28;20769;-80
2023/08/09 04:48:37;;;;;;;;;;;;;;;19.05;100.00;97787.44;5088028;28;19931;-78
2023/08/09 04:51:05;;;;;;;;;;;;;;;19.09;100.00;97793.81;5084878;28;20347;-76
2023/08/09 04:53:31;;;;;;;;;;;;;;;18.47;100.00;97787.13;5087526;28;19924;-78
2023/08/09 04:55:58;;;;;;;;;;;;;;;18.65;100.00;97786.03;5084258;28;19928;-80
2023/08/09 04:58:24;;;;;;;;;;;;;;;18.77;100.00;97788.91;5068121;28;19928;-79
2023/08/09 05:00:51;;;;;;;;;;;;;;;18.92;100.00;97777.59;5083248;28;19928;-78
2023/08/09 05:03:17;;;;;;;;;;;;;;;19.02;100.00;97785.38;5085032;28;19931;-78
2023/08/09 05:05:44;;;;;;;;;;;;;;;19.01;100.00;97783.78;5088204;28;20402;-77
2023/08/09 05:08:12;;;;;;;;;;;;;;;19.09;100.00;97785.72;5084456;28;20398;-79
2023/08/09 05:10:39;;;;;;;;;;;;;;;19.04;100.00;97790.47;5086928;28;19928;-78
2023/08/09 05:13:05;;;;;;;;;;;;;;;19.08;100.00;97789.53;5070002;28;19925;-79
2023/08/09 05:15:31;;;;;;;;;;;;;;;19.17;100.00;97787.59;5085692;28;20030;-78
2023/08/09 05:17:58;;;;;;;;;;;;;;;19.06;100.00;97778.22;5082479;28;20349;-79
2023/08/09 05:20:24;;;;;;;;;;;;;;;19.10;100.00;97784.56;5084374;28;20493;-78
2023/08/09 05:22:51;;;;;;;;;;;;;;;18.82;100.00;97786.03;5088011;28;19924;-77
2023/08/09 05:25:19;;;;;;;;;;;;;;;18.93;100.00;97786.50;5065518;28;19935;-78
2023/08/09 05:27:47;;;;;;;;;;;;;;;18.98;100.00;97780.91;5087510;28;19924;-78
2023/08/09 05:30:13;;;;;;;;;;;;;;;19.04;100.00;97785.84;5083857;28;20002;-79
2023/08/09 05:32:40;;;;;;;;;;;;;;;19.16;100.00;97791.41;5069488;28;19981;-78
2023/08/09 05:35:06;;;;;;;;;;;;;;;19.20;100.00;97781.53;5064433;28;19934;-78
2023/08/09 05:37:33;;;;;;;;;;;;;;;19.21;100.00;97777.72;5084419;28;19955;-78
2023/08/09 05:39:59;;;;;;;;;;;;;;;19.29;100.00;97785.03;5087539;28;19946;-78
2023/08/09 05:42:27;;;;;;;;;;;;;;;19.14;100.00;97774.69;5082314;28;20654;-77
2023/08/09 05:44:53;;;;;;;;;;;;;;;19.08;100.00;97778.69;5087143;28;20025;-78
2023/08/09 05:47:19;;;;;;;;;;;;;;;19.21;100.00;97785.84;5084580;28;19989;-77
2023/08/09 05:49:46;;;;;;;;;;;;;;;19.12;100.00;97782.34;5083547;28;20040;-78
2023/08/09 05:52:12;;;;;;;;;;;;;;;19.21;100.00;97785.84;5086044;28;20019;-78
2023/08/09 05:54:38;;;;;;;;;;;;;;;19.24;100.00;97782.50;5083981;28;20462;-78
2023/08/09 05:57:05;;;;;;;;;;;;;;;19.10;100.00;97787.28;5066161;28;19958;-78
2023/08/09 05:59:33;;;;;;;;;;;;;;;18.93;100.00;97775.69;5066676;28;20392;-77
2023/08/09 06:02:00;;;;;;;;;;;;;;;18.92;100.00;97776.78;5081781;28;20577;-78
2023/08/09 06:04:26;;;;;;;;;;;;;;;19.03;100.00;97773.47;5086586;28;19935;-77
2023/08/09 06:06:52;;;;;;;;;;;;;;;18.93;100.00;97790.03;5083572;28;19967;-78
2023/08/09 06:09:19;;;;;;;;;;;;;;;18.78;100.00;97793.22;5086146;28;19950;-78
2023/08/09 06:11:45;;;;;;;;;;;;;;;18.82;100.00;97786.81;5082807;28;20012;-79
2023/08/09 06:14:11;;;;;;;;;;;;;;;18.93;100.00;97795.44;5084636;28;19928;-79
2023/08/09 06:16:39;;;;;;;;;;;;;;;18.97;100.00;97795.59;5083359;28;20298;-79
2023/08/09 06:19:05;;;;;;;;;;;;;;;18.90;100.00;97787.16;5063895;28;20016;-78
2023/08/09 06:21:32;;;;;;;;;;;;;;;19.05;100.00;97792.06;5068676;28;20357;-77
2023/08/09 06:23:58;;;;;;;;;;;;;;;19.14;100.00;97787.44;5082872;28;19924;-80
2023/08/09 06:26:24;;;;;;;;;;;;;;;19.21;100.00;97795.88;5085532;28;19935;-78
2023/08/09 06:28:51;;;;;;;;;;;;;;;19.08;100.00;97783.31;5086462;28;19928;-78
2023/08/09 06:31:17;;;;;;;;;;;;;;;19.12;100.00;97784.25;5084666;28;20050;-79
2023/08/09 06:33:45;;;;;;;;;;;;;;;19.14;100.00;97793.66;5082584;28;20019;-79
2023/08/09 06:36:12;;;;;;;;;;;;;;;19.16;100.00;97791.41;5082549;28;19978;-79
2023/08/09 06:38:39;;;;;;;;;;;;;;;19.21;100.00;97790.47;5085852;28;19928;-78
2023/08/09 06:41:05;;;;;;;;;;;;;;;19.18;100.00;97781.06;5082534;28;19928;-78
2023/08/09 06:43:31;;;;;;;;;;;;;;;19.16;100.00;97785.19;5085110;28;19930;-83
2023/08/09 06:45:58;;;;;;;;;;;;;;;19.18;100.00;97791.91;5083498;28;19972;-79
2023/08/09 06:48:24;;;;;;;;;;;;;;;19.16;100.00;97786.00;5085539;28;19934;-78
2023/08/09 06:50:52;;;;;;;;;;;;;;;19.23;100.00;97785.50;5082551;28;20020;-79
2023/08/09 06:53:19;;;;;;;;;;;;;;;19.19;100.00;97792.66;5084880;28;20014;-78
2023/08/09 06:55:45;;;;;;;;;;;;;;;19.18;100.00;97786.47;5081710;28;19927;-78
2023/08/09 06:58:11;;;;;;;;;;;;;;;18.87;100.00;97777.75;5083180;28;19931;-79
2023/08/09 07:00:38;;;;;;;;;;;;;;;18.99;100.00;97794.16;5080717;28;19932;-79
2023/08/09 07:03:04;;;;;;;;;;;;;;;19.11;100.00;97793.50;5065293;28;19935;-78
2023/08/09 07:05:31;;;;;;;;;;;;;;;18.85;100.00;97794.31;5085687;28;19924;-78
2023/08/09 07:07:58;;;;;;;;;;;;;;;18.37;100.00;97803.63;5082265;28;20018;-79
2023/08/09 07:10:25;;;;;;;;;;;;;;;18.02;100.00;97803.56;5066241;28;19975;-78
2023/08/09 07:12:52;;;;;;;;;;;;;;;18.11;100.00;97806.28;5081216;28;19928;-78
2023/08/09 07:15:18;;;;;;;;;;;;;;;18.11;100.00;97804.38;5083319;28;20011;-78
2023/08/09 07:17:46;;;;;;;;;;;;;;;17.92;100.00;97809.22;5080282;28;19924;-77
2023/08/09 07:20:14;;;;;;;;;;;;;;;17.99;100.00;97812.28;5082518;28;19924;-78
2023/08/09 07:22:40;;;;;;;;;;;;;;;18.29;100.00;97813.31;5066961;28;19928;-78
2023/08/09 07:25:09;;;;;;;;;;;;;;;18.42;100.00;97820.50;5063746;28;19956;-78
2023/08/09 07:27:35;;;;;;;;;;;;;;;18.63;100.00;97815.31;5084118;28;19931;-78
2023/08/09 07:30:01;;;;;;;;;;;;;;;18.77;100.00;97810.53;5070850;28;19934;-78
2023/08/09 07:32:30;;;;;;;;;;;;;;;18.84;100.00;97808.97;5082809;28;19970;-78
2023/08/09 07:34:57;;;;;;;;;;;;;;;18.80;100.00;97815.31;5079929;28;20362;-77
2023/08/09 07:37:23;;;;;;;;;;;;;;;18.84;100.00;97819.00;5074982;28;19981;-77
2023/08/09 07:39:49;;;;;;;;;;;;;;;18.93;100.00;97825.19;5076879;28;19935;-78
2023/08/09 07:42:17;;;;;;;;;;;;;;;19.03;100.00;97819.47;5070053;28;19932;-77
2023/08/09 07:44:43;;;;;;;;;;;;;;;19.04;100.00;97822.94;5075873;28;19930;-78
2023/08/09 07:47:10;;;;;;;;;;;;;;;18.83;100.00;97823.59;5082091;28;19946;-78
2023/08/09 07:49:36;;;;;;;;;;;;;;;18.88;100.00;97832.69;5081643;28;19932;-78
2023/08/09 07:52:02;;;;;;;;;;;;;;;18.89;100.00;97813.41;5051119;28;19931;-78
2023/08/09 07:54:29;;;;;;;;;;;;;;;18.81;100.00;97811.50;5054926;28;19999;-78
2023/08/09 07:56:55;;;;;;;;;;;;;;;18.85;100.00;97817.84;5081569;28;19966;-77
2023/08/09 07:59:23;;;;;;;;;;;;;;;18.84;100.00;97816.28;5075176;28;20593;-78
2023/08/09 08:01:49;;;;;;;;;;;;;;;18.75;100.00;97807.38;5076702;28;20582;-80
2023/08/09 08:04:16;;;;;;;;;;;;;;;18.85;100.00;97823.28;5064756;28;20304;-78
2023/08/09 08:06:42;;;;;;;;;;;;;;;18.70;100.00;97823.75;5071497;28;19934;-79
2023/08/09 08:09:12;;;;;;;;;;;;;;;18.65;100.00;97829.31;5070627;28;20398;-78
2023/08/09 08:11:38;;;;;;;;;;;;;;;18.81;100.00;97833.97;5067222;28;19929;-76
2023/08/09 08:14:05;;;;;;;;;;;;;;;18.74;100.00;97832.81;5070341;28;20010;-77
2023/08/09 08:16:32;;;;;;;;;;;;;;;18.73;100.00;97836.63;5076332;28;19929;-78
2023/08/09 08:18:59;;;;;;;;;;;;;;;18.81;100.00;97855.59;5077481;28;20026;-78
2023/08/09 08:21:25;;;;;;;;;;;;;;;18.85;100.00;97859.25;5080230;28;20379;-77
2023/08/09 08:23:53;;;;;;;;;;;;;;;18.85;100.00;97861.94;5079967;28;19931;-77
2023/08/09 08:26:19;;;;;;;;;;;;;;;18.79;100.00;97862.41;5083133;28;20015;-77
2023/08/09 08:28:46;;;;;;;;;;;;;;;18.79;100.00;97868.63;5057503;28;19928;-80
2023/08/09 08:31:14;;;;;;;;;;;;;;;18.90;100.00;97868.34;5057837;28;20402;-78
2023/08/09 08:33:45;;;;;;;;;;;;;;;18.94;100.00;97853.06;5058251;28;19924;-77
2023/08/09 08:36:11;;;;;;;;;;;;;;;18.81;100.00;97860.22;5078879;28;20398;-77
2023/08/09 08:38:38;;;;;;;;;;;;;;;18.92;100.00;97857.97;5073204;28;19933;-77
2023/08/09 08:41:05;;;;;;;;;;;;;;;18.85;100.00;97858.44;5080917;28;20019;-78
2023/08/09 08:43:32;;;;;;;;;;;;;;;18.80;100.00;97858.59;5083969;28;19927;-77
2023/08/09 08:46:00;;;;;;;;;;;;;;;18.89;100.00;97862.13;5078413;28;20117;-77
2023/08/09 08:48:26;;;;;;;;;;;;;;;18.85;100.00;97874.69;5083142;28;19928;-77
2023/08/09 08:50:55;;;;;;;;;;;;;;;18.79;100.00;97867.84;5083296;28;19968;-77
2023/08/09 08:53:21;;;;;;;;;;;;;;;18.78;100.00;97866.25;5082916;28;20597;-77
2023/08/09 08:55:48;;;;;;;;;;;;;;;18.91;100.00;97869.94;5079975;28;20019;-76
2023/08/09 08:58:14;;;;;;;;;;;;;;;18.93;100.00;97868.50;5068774;28;19931;-76
2023/08/09 09:00:41;;;;;;;;;;;;;;;18.92;100.00;97875.00;5070180;28;20015;-76
2023/08/09 09:03:07;;;;;;;;;;;;;;;18.87;100.00;97877.88;5051038;28;19928;-77
2023/08/09 09:05:34;;;;;;;;;;;;;;;18.84;100.00;97873.91;5065950;28;19975;-76
2023/08/09 09:08:02;;;;;;;;;;;;;;;18.85;100.00;97883.59;5078180;28;20634;-77
2023/08/09 09:10:29;;;;;;;;;;;;;;;18.86;100.00;97885.19;5080167;28;19932;-77
2023/08/09 09:12:56;;;;;;;;;;;;;;;18.84;100.00;97886.63;5079528;28;20347;-76
2023/08/09 09:15:23;;;;;;;;;;;;;;;18.88;100.00;97884.88;5080735;28;19935;-77
2023/08/09 09:17:51;;;;;;;;;;;;;;;18.98;100.00;97889.97;5086549;28;19928;-78
2023/08/09 09:20:21;;;;;;;;;;;;;;;18.98;100.00;97891.88;5082745;28;19977;-78
2023/08/09 09:22:48;;;;;;;;;;;;;;;18.99;100.00;97896.19;5074281;28;19924;-79
2023/08/09 09:25:17;;;;;;;;;;;;;;;19.00;100.00;97893.16;5087808;28;19928;-78
2023/08/09 09:27:43;;;;;;;;;;;;;;;19.14;100.00;97890.31;5087390;28;19926;-78
2023/08/09 09:30:13;;;;;;;;;;;;;;;19.15;100.00;97886.50;5087704;28;19932;-78
2023/08/09 09:32:41;;;;;;;;;;;;;;;18.89;100.00;97886.47;5087825;28;20500;-78
2023/08/09 09:35:08;;;;;;;;;;;;;;;18.92;100.00;97891.25;5087549;28;19924;-77
2023/08/09 09:37:35;;;;;;;;;;;;;;;18.80;100.00;97885.66;5087446;28;19932;-82
2023/08/09 09:40:02;;;;;;;;;;;;;;;19.09;100.00;97882.34;5077071;28;20306;-80
2023/08/09 09:42:33;;;;;;;;;;;;;;;19.15;100.00;97881.06;5087440;28;19967;-80
2023/08/09 09:45:03;;;;;;;;;;;;;;;19.15;100.00;97873.75;5087837;28;19993;-80
2023/08/09 09:47:32;;;;;;;;;;;;;;;19.14;100.00;97869.44;5087616;28;20019;-81
2023/08/09 09:49:58;;;;;;;;;;;;;;;19.31;100.00;97860.53;5084046;28;19944;-80
2023/08/09 09:52:26;;;;;;;;;;;;;;;19.38;100.00;97863.53;5086861;28;19932;-79
2023/08/09 09:54:56;;;;;;;;;;;;;;;19.44;100.00;97853.34;5083480;28;19975;-80
2023/08/09 09:57:22;;;;;;;;;;;;;;;19.57;100.00;97852.38;5085566;28;19963;-78
2023/08/09 09:59:51;;;;;;;;;;;;;;;19.73;100.00;97850.75;5082670;28;19924;-80
2023/08/09 10:02:17;;;;;;;;;;;;;;;19.59;100.00;97856.34;5084502;28;19928;-81
2023/08/09 10:04:45;;;;;;;;;;;;;;;19.52;100.00;97849.84;5087060;28;19924;-81
2023/08/09 10:07:12;;;;;;;;;;;;;;;19.80;100.00;97851.84;5083662;28;19963;-80
2023/08/09 10:09:39;;;;;;;;;;;;;;;19.89;100.00;97844.47;5085837;28;19924;-80
2023/08/09 10:12:07;;;;;;;;;;;;;;;19.74;100.00;97849.63;5064332;28;20015;-80
2023/08/09 10:14:34;;;;;;;;;;;;;;;19.69;100.00;97841.66;5084822;28;19963;-81
2023/08/09 10:17:03;;;;;;;;;;;;;;;19.50;100.00;97846.63;5081383;28;19929;-79
2023/08/09 10:19:30;;;;;;;;;;;;;;;19.41;100.00;97852.06;5083772;28;19932;-79
2023/08/09 10:21:56;;;;;;;;;;;;;;;19.55;100.00;97847.28;5086593;28;20445;-80
2023/08/09 10:24:23;;;;;;;;;;;;;;;19.45;100.00;97861.16;5082605;28;19992;-79
2023/08/09 10:26:52;;;;;;;;;;;;;;;19.59;100.00;97858.28;5085791;28;19928;-79
2023/08/09 10:29:20;;;;;;;;;;;;;;;19.49;100.00;97861.31;5086210;28;19924;-80
2023/08/09 10:31:48;;;;;;;;;;;;;;;19.67;100.00;97869.09;5083520;28;19924;-79
2023/08/09 10:34:16;;;;;;;;;;;;;;;19.76;100.00;97864.44;5081105;28;19939;-79
2023/08/09 10:36:43;;;;;;;;;;;;;;;19.71;100.00;97863.81;5078440;28;20339;-80
2023/08/09 10:39:10;;;;;;;;;;;;;;;19.75;100.00;97864.75;5067757;28;20557;-79
2023/08/09 10:41:36;;;;;;;;;;;;;;;19.49;100.00;97858.63;5082724;28;19932;-79
2023/08/09 10:44:03;;;;;;;;;;;;;;;19.40;100.00;97867.53;5067107;28;19924;-80
2023/08/09 10:46:33;;;;;;;;;;;;;;;19.38;100.00;97868.94;5055728;28;19932;-79
2023/08/09 10:49:00;;;;;;;;;;;;;;;19.51;100.00;97859.06;5060995;28;19931;-78
2023/08/09 10:51:28;;;;;;;;;;;;;;;19.62;100.00;97863.06;5083271;28;19935;-77
2023/08/09 10:53:58;;;;;;;;;;;;;;;19.58;100.00;97857.47;5078378;28;19974;-77
2023/08/09 10:56:31;;;;;;;;;;;;;;;19.45;100.00;97863.06;5059472;28;19936;-78
2023/08/09 10:59:04;;;;;;;;;;;;;;;19.77;100.00;97855.19;5085209;28;19928;-79
2023/08/09 11:01:31;;;;;;;;;;;;;;;19.98;100.00;97852.56;5082847;28;19924;-79
2023/08/09 11:03:59;;;;;;;;;;;;;;;19.80;100.00;97849.13;5075638;28;20010;-80
2023/08/09 11:06:40;;;;;;;;;;;;;;;19.67;100.00;97850.13;5077685;28;20039;-79
2023/08/09 11:09:09;;;;;;;;;;;;;;;19.64;100.00;97852.69;5081450;28;19928;-79
2023/08/09 11:11:36;;;;;;;;;;;;;;;19.53;100.00;97840.59;5082044;28;19981;-79
2023/08/09 11:14:02;;;;;;;;;;;;;;;19.42;100.00;97839.34;5084704;28;20019;-79
2023/08/09 11:16:29;;;;;;;;;;;;;;;19.63;100.00;97837.53;5067410;28;19930;-77
2023/08/09 11:19:03;;;;;;;;;;;;;;;19.54;100.00;97828.63;5073898;28;19961;-78
2023/08/09 11:21:37;;;;;;;;;;;;;;;19.64;100.00;97822.88;5075339;28;19939;-78
2023/08/09 11:24:04;;;;;;;;;;;;;;;19.78;100.00;97821.53;5056655;28;20023;-78
2023/08/09 11:26:33;;;;;;;;;;;;;;;19.81;100.00;97828.22;5082879;28;20576;-78
2023/08/09 11:29:00;;;;;;;;;;;;;;;20.09;100.00;97836.72;5085654;28;19930;-78
2023/08/09 11:31:27;;;;;;;;;;;;;;;19.91;100.00;97834.09;5085667;28;20011;-78
2023/08/09 11:33:56;;;;;;;;;;;;;;;20.07;100.00;97831.63;5085641;28;19977;-78
2023/08/09 11:36:26;;;;;;;;;;;;;;;20.21;100.00;97836.84;5085429;28;19928;-79
2023/08/09 11:38:53;;;;;;;;;;;;;;;20.39;100.00;97836.44;5083259;28;19959;-77
2023/08/09 11:41:21;;;;;;;;;;;;;;;20.37;100.00;97835.16;5085338;28;19939;-77
2023/08/09 11:43:49;;;;;;;;;;;;;;;20.39;100.00;97841.84;5084809;28;19932;-76
2023/08/09 11:46:19;;;;;;;;;;;;;;;20.35;100.00;97840.13;5063827;28;20306;-77
2023/08/09 11:48:45;;;;;;;;;;;;;;;20.43;100.00;97834.66;5053463;28;20069;-76
2023/08/09 11:51:13;;;;;;;;;;;;;;;20.41;100.00;97819.84;5081888;28;19924;-77
2023/08/09 11:53:40;;;;;;;;;;;;;;;20.42;100.00;97816.78;5075895;28;20007;-78
2023/08/09 11:56:07;;;;;;;;;;;;;;;20.67;100.00;97816.97;5078239;28;19929;-78
2023/08/09 11:58:35;;;;;;;;;;;;;;;20.59;100.00;97818.59;5075312;28;19928;-78
2023/08/09 12:01:13;;;;;;;;;;;;;;;20.72;100.00;97816.75;5078911;28;19936;-77
2023/08/09 12:03:39;;;;;;;;;;;;;;;20.51;100.00;97807.81;5083663;28;19928;-75
2023/08/09 12:06:06;;;;;;;;;;;;;;;20.43;100.00;97810.25;5077389;28;20043;-77
2023/08/09 12:08:33;;;;;;;;;;;;;;;20.46;100.00;97815.00;5074877;28;19928;-77
2023/08/09 12:10:59;;;;;;;;;;;;;;;20.58;100.00;97822.44;5078291;28;19928;-78
2023/08/09 12:13:26;;;;;;;;;;;;;;;20.57;100.00;97826.28;5072970;28;19924;-77
2023/08/09 12:15:52;;;;;;;;;;;;;;;20.67;100.00;97820.47;5074604;28;20665;-77
2023/08/09 12:18:20;;;;;;;;;;;;;;;20.57;100.00;97822.78;5071246;28;20391;-76
2023/08/09 12:20:46;;;;;;;;;;;;;;;20.77;100.00;97816.53;5071260;28;19968;-78
2023/08/09 12:23:13;;;;;;;;;;;;;;;20.88;100.00;97817.75;5065149;28;19935;-78
2023/08/09 12:25:39;;;;;;;;;;;;;;;20.74;100.00;97819.91;5075811;28;20007;-76
2023/08/09 12:28:06;;;;;;;;;;;;;;;20.76;100.00;97812.25;5079696;28;19932;-77
2023/08/09 12:30:33;;;;;;;;;;;;;;;20.56;100.00;97818.47;5078981;28;19975;-78
2023/08/09 12:32:59;;;;;;;;;;;;;;;20.65;100.00;97811.06;5083863;28;19981;-78
2023/08/09 12:35:27;;;;;;;;;;;;;;;20.63;100.00;97810.59;5069968;28;19924;-78
2023/08/09 12:37:53;;;;;;;;;;;;;;;20.91;100.00;97814.38;5070809;28;19954;-77